Chesapeake — WDD3041 — position and weather

sailwx.info

Track history (hours):
 
Tides and Currents Weather Stations Pressure Air Temp Water Temp Dewpoint Dewpoint Depression Visibility Wind Speed Wind Dir Waves Ship Positions

Chesapeake

Owner: Vane Line Bunkering, Baltimore, MD. More information available from US FCC via Universal Licensing System and Coast Guard Vessel Documentation Center.

Last reported at 2017-Apr-20 20:34 UTC. Time now 2017-Apr-23 23:42 UTC.
Position N 39°07' W 075°13'.

Length 34 m.

Type: Tug. MMSI: 367123040.

Date/timePositionNaut miles runAvg speedWind from/ knotsBaromVisibWave heightAir tempDewpointWater temp
2017-Apr-20 20:34N 39°07' W 075°13'1 7.5
2017-Apr-20 20:30N 39°08' W 075°13'4 7.3
2017-Apr-20 19:58N 39°11' W 075°16'3 7.0
2017-Apr-20 19:30N 39°14' W 075°18'4 7.4
2017-Apr-20 19:00N 39°16' W 075°21'4 7.6
2017-Apr-20 18:30N 39°19' W 075°24'4 8.6
2017-Apr-20 18:00N 39°22' W 075°28'5 9.1
2017-Apr-20 17:30N 39°26' W 075°32'5 9.1
2017-Apr-20 17:00N 39°30' W 075°33'5 9.6
2017-Apr-20 16:30N 39°35' W 075°34'4 8.8
2017-Apr-20 16:00N 39°39' W 075°33'510.1
2017-Apr-20 15:30N 39°44' W 075°30'5 9.6
2017-Apr-20 15:00N 39°48' W 075°26'8 8.3
2017-Apr-20 14:00N 39°51' W 075°16'2 3.3
2017-Apr-20 13:30N 39°52' W 075°14'2 4.8
2017-Apr-20 13:00N 39°54' W 075°12'0 0.0
2017-Apr-20 12:30N 39°54' W 075°12'0 0.0
2017-Apr-20 12:00N 39°54' W 075°12'0 0.0
2017-Apr-20 11:30N 39°54' W 075°12'0 0.0
2017-Apr-20 11:00N 39°54' W 075°12'0 0.0
2017-Apr-20 10:30N 39°54' W 075°12'0 0.0
2017-Apr-20 10:00N 39°54' W 075°12'0 0.0
2017-Apr-20 09:30N 39°54' W 075°12'0 0.0
2017-Apr-20 09:00N 39°54' W 075°12'0 0.0
2017-Apr-20 08:30N 39°54' W 075°12'0 0.0
2017-Apr-20 08:00N 39°54' W 075°12'0 0.0
2017-Apr-20 07:30N 39°54' W 075°12'0 0.0
2017-Apr-20 07:00N 39°54' W 075°12'0 0.0
2017-Apr-20 06:30N 39°54' W 075°12'0 0.0
2017-Apr-20 06:00N 39°54' W 075°12'0 0.0
2017-Apr-20 05:30N 39°54' W 075°12'0 0.0
2017-Apr-20 05:00N 39°54' W 075°12'0 0.0
2017-Apr-20 04:30N 39°54' W 075°12'0 0.0
2017-Apr-20 04:00N 39°54' W 075°12'0 0.0
2017-Apr-20 03:30N 39°54' W 075°12'0 0.0
2017-Apr-20 03:00N 39°54' W 075°12'0 0.0
2017-Apr-20 02:30N 39°54' W 075°12'0 0.0
2017-Apr-20 02:00N 39°54' W 075°12'1 1.2
2017-Apr-20 01:30N 39°53' W 075°12'3 5.3
2017-Apr-20 01:01N 39°54' W 075°08'2 3.7
2017-Apr-20 00:30N 39°53' W 075°10'2 3.3
2017-Apr-20 00:00N 39°54' W 075°12'0 0.0
2017-Apr-19 23:30N 39°54' W 075°12'0 0.0
2017-Apr-19 23:00N 39°54' W 075°12'0 0.0
2017-Apr-19 22:26N 39°54' W 075°12'0 0.0
2017-Apr-19 21:59N 39°54' W 075°12'0 0.0
2017-Apr-19 21:30N 39°54' W 075°12'0 0.0
2017-Apr-19 20:57N 39°54' W 075°12'0 0.0
2017-Apr-19 20:29N 39°54' W 075°12'0 0.0
2017-Apr-19 19:59N 39°54' W 075°12'0 0.0
2017-Apr-19 19:30N 39°54' W 075°12'0 0.0
2017-Apr-19 18:59N 39°54' W 075°12'0 0.0
2017-Apr-19 18:30N 39°54' W 075°12'0 0.0
2017-Apr-19 17:59N 39°54' W 075°12'0 0.0
2017-Apr-19 17:30N 39°54' W 075°12'0 0.0
2017-Apr-19 16:59N 39°54' W 075°12'0 0.0
2017-Apr-19 16:30N 39°54' W 075°12'0 0.0
2017-Apr-19 16:00N 39°54' W 075°12'0 0.0
2017-Apr-19 15:30N 39°54' W 075°12'0 0.0
2017-Apr-19 14:58N 39°54' W 075°12'0 0.0
2017-Apr-19 14:30N 39°54' W 075°12'0 0.0
2017-Apr-19 13:25N 39°54' W 075°12'0 0.0
2017-Apr-19 13:00N 39°54' W 075°12'0 0.0
2017-Apr-19 12:30N 39°54' W 075°12'0 0.0
2017-Apr-19 12:00N 39°54' W 075°12'0 0.0
2017-Apr-19 11:30N 39°54' W 075°12'0 0.0
2017-Apr-19 11:00N 39°54' W 075°12'0 0.0
2017-Apr-19 10:30N 39°54' W 075°12'0 0.1
2017-Apr-19 10:00N 39°54' W 075°12'0 0.0
2017-Apr-19 09:30N 39°54' W 075°12'0 0.0
2017-Apr-19 09:00N 39°54' W 075°12'0 0.0
2017-Apr-19 08:30N 39°54' W 075°12'0 0.0
2017-Apr-19 08:00N 39°54' W 075°12'0 0.0
2017-Apr-19 07:30N 39°54' W 075°12'3 6.4
2017-Apr-19 07:00N 39°51' W 075°15'1 1.7
2017-Apr-19 06:30N 39°51' W 075°16'0 1.0
2017-Apr-19 06:00N 39°51' W 075°17'5 9.2
2017-Apr-19 05:30N 39°50' W 075°22'5 9.6
2017-Apr-19 05:00N 39°47' W 075°28'5 9.3
2017-Apr-19 04:30N 39°43' W 075°30'4 8.9
2017-Apr-19 04:00N 39°39' W 075°33'4 7.1
2017-Apr-19 03:30N 39°35' W 075°34'0 0.1
2017-Apr-19 03:00N 39°35' W 075°34'2 4.8
2017-Apr-19 02:30N 39°33' W 075°35'5 9.1
2017-Apr-19 02:00N 39°33' W 075°41'4 8.9
2017-Apr-19 01:30N 39°32' W 075°47'4 7.6
2017-Apr-19 01:00N 39°32' W 075°52'5 9.0
2017-Apr-19 00:30N 39°29' W 075°57'5 9.3
2017-Apr-19 00:00N 39°26' W 076°01'4 8.9
2017-Apr-18 23:30N 39°23' W 076°05'4 8.9
2017-Apr-18 23:00N 39°21' W 076°10'6 8.5
2017-Apr-18 22:16N 39°15' W 076°14'3 9.0
2017-Apr-18 21:59N 39°13' W 076°15'5 9.3
2017-Apr-18 21:30N 39°09' W 076°19'5 9.3
2017-Apr-18 20:57N 39°10' W 076°25'410.1
2017-Apr-18 20:30N 39°12' W 076°31'4 7.8
2017-Apr-18 20:00N 39°15' W 076°34'1 2.8
2017-Apr-18 19:30N 39°16' W 076°34'0 0.0
2017-Apr-18 19:00N 39°16' W 076°34'0 0.1
2017-Apr-18 18:31N 39°16' W 076°34'0 0.0
2017-Apr-18 18:00N 39°16' W 076°34'0 0.0
2017-Apr-18 17:29N 39°16' W 076°34'0 0.0
2017-Apr-18 16:59N 39°16' W 076°34'0 0.0
2017-Apr-18 16:12N 39°16' W 076°34'0 0.0
2017-Apr-18 15:09N 39°16' W 076°34'0 0.0
2017-Apr-18 15:00N 39°16' W 076°34'0 0.0
2017-Apr-18 14:30N 39°16' W 076°34'0 0.0
2017-Apr-18 13:30N 39°16' W 076°34'0 0.0
2017-Apr-18 13:00N 39°16' W 076°34'0 0.0
2017-Apr-18 12:30N 39°16' W 076°34'0 0.0
2017-Apr-18 11:59N 39°16' W 076°34'0 0.0
2017-Apr-18 11:30N 39°16' W 076°34'0 0.0
2017-Apr-18 11:00N 39°16' W 076°34'0 0.0
2017-Apr-18 10:30N 39°16' W 076°34'0 0.0
2017-Apr-18 10:00N 39°16' W 076°34'0 0.0
2017-Apr-18 09:30N 39°16' W 076°34'0 0.0
2017-Apr-18 09:00N 39°16' W 076°34'0 0.0
2017-Apr-18 08:30N 39°16' W 076°34'0 0.0
2017-Apr-18 08:00N 39°16' W 076°34'0 0.0
2017-Apr-18 07:30N 39°16' W 076°34'0 0.0
2017-Apr-18 07:00N 39°16' W 076°34'0 0.0
2017-Apr-18 06:30N 39°16' W 076°34'0 0.0
2017-Apr-18 06:00N 39°16' W 076°34'0 0.0
2017-Apr-18 05:30N 39°16' W 076°34'0 0.0
2017-Apr-18 05:00N 39°16' W 076°34'0 0.0
2017-Apr-18 04:30N 39°16' W 076°34'1 1.8
2017-Apr-18 04:00N 39°16' W 076°34'1 1.6
2017-Apr-18 03:30N 39°15' W 076°33'0 0.0
2017-Apr-18 03:00N 39°15' W 076°33'0 0.0
2017-Apr-18 02:30N 39°15' W 076°33'0 0.0
2017-Apr-18 02:00N 39°15' W 076°33'0 0.1
2017-Apr-18 01:30N 39°15' W 076°33'0 0.1
2017-Apr-18 01:00N 39°15' W 076°33'0 0.1
2017-Apr-18 00:31N 39°15' W 076°33'0 0.1
2017-Apr-18 00:01N 39°15' W 076°33'0 0.0
2017-Apr-17 23:30N 39°15' W 076°33'0 0.0
2017-Apr-17 23:00N 39°15' W 076°33'0 0.1
2017-Apr-17 22:30N 39°15' W 076°33'0 0.1
2017-Apr-17 22:00N 39°15' W 076°33'0 0.0
2017-Apr-17 21:30N 39°15' W 076°33'0 0.0
2017-Apr-17 21:00N 39°15' W 076°33'0 0.0
2017-Apr-17 20:30N 39°15' W 076°33'1 1.6
2017-Apr-17 20:00N 39°15' W 076°34'0 0.0
2017-Apr-17 19:30N 39°15' W 076°34'0 0.0
2017-Apr-17 19:00N 39°15' W 076°34'0 0.0
2017-Apr-17 18:29N 39°15' W 076°34'0 0.1
2017-Apr-17 18:00N 39°15' W 076°34'0 0.0
2017-Apr-17 17:30N 39°15' W 076°34'0 0.0
2017-Apr-17 16:52N 39°15' W 076°34'0 0.0
2017-Apr-17 16:25N 39°15' W 076°34'0 0.0
2017-Apr-17 15:07N 39°15' W 076°34'0 0.0
2017-Apr-17 15:00N 39°15' W 076°34'0 0.0
2017-Apr-17 14:30N 39°15' W 076°34'1 0.8
2017-Apr-17 13:30N 39°15' W 076°33'0 0.0
2017-Apr-17 13:00N 39°15' W 076°33'0 0.0
2017-Apr-17 12:30N 39°15' W 076°33'0 0.0
2017-Apr-17 12:00N 39°15' W 076°33'0 0.0
2017-Apr-17 11:31N 39°15' W 076°33'0 0.1
2017-Apr-17 11:00N 39°15' W 076°33'0 0.0
2017-Apr-17 10:30N 39°15' W 076°33'0 0.0
2017-Apr-17 10:00N 39°15' W 076°33'0 0.0
2017-Apr-17 09:30N 39°15' W 076°33'0 0.0
2017-Apr-17 09:00N 39°15' W 076°33'0 0.0
2017-Apr-17 08:30N 39°15' W 076°33'0 0.0
2017-Apr-17 08:00N 39°15' W 076°33'0 0.0
2017-Apr-17 07:30N 39°15' W 076°33'0 0.0
2017-Apr-17 07:00N 39°15' W 076°33'0 0.0
2017-Apr-17 06:30N 39°15' W 076°33'0 0.0
2017-Apr-17 06:00N 39°15' W 076°33'0 0.0
2017-Apr-17 05:30N 39°15' W 076°33'0 0.0
2017-Apr-17 05:00N 39°15' W 076°33'0 0.0
2017-Apr-17 04:29N 39°15' W 076°33'0 0.0
2017-Apr-17 04:00N 39°15' W 076°33'0 0.0
2017-Apr-17 03:30N 39°15' W 076°33'0 0.0
2017-Apr-17 03:00N 39°15' W 076°33'0 0.0
2017-Apr-17 02:30N 39°15' W 076°33'0 0.1
2017-Apr-17 02:00N 39°15' W 076°33'0 0.0
2017-Apr-17 01:30N 39°15' W 076°33'0 0.0
2017-Apr-17 01:00N 39°15' W 076°33'0 0.0
2017-Apr-17 00:30N 39°15' W 076°33'0 0.0
2017-Apr-17 00:00N 39°15' W 076°33'0 0.0
2017-Apr-16 23:30N 39°15' W 076°33'0 0.0
2017-Apr-16 23:00N 39°15' W 076°33'0 0.4
2017-Apr-16 22:30N 39°15' W 076°33'3 6.3
2017-Apr-16 22:00N 39°12' W 076°31'5 9.1
2017-Apr-16 21:30N 39°10' W 076°25'4 8.9
2017-Apr-16 20:59N 39°09' W 076°20'7 9.6
2017-Apr-16 20:15N 39°14' W 076°14'210.1
2017-Apr-16 20:00N 39°17' W 076°14'7 9.6
2017-Apr-16 19:18N 39°22' W 076°08'3 9.7
2017-Apr-16 18:57N 39°24' W 076°04'4 9.1
2017-Apr-16 18:30N 39°26' W 076°00'4 8.7
2017-Apr-16 18:00N 39°29' W 075°56'4 7.9
2017-Apr-16 17:30N 39°32' W 075°52'3 6.6
2017-Apr-16 17:00N 39°32' W 075°48'4 7.1
2017-Apr-16 16:30N 39°33' W 075°43'3 6.9
2017-Apr-16 16:00N 39°33' W 075°39'3 6.9
2017-Apr-16 15:30N 39°34' W 075°35'3 5.7
2017-Apr-16 15:00N 39°31' W 075°33'8 7.6
2017-Apr-16 14:00N 39°24' W 075°30'4 7.8
2017-Apr-16 13:30N 39°21' W 075°26'4 7.2
2017-Apr-16 13:00N 39°18' W 075°23'4 7.2
2017-Apr-16 12:30N 39°16' W 075°20'4 7.1
2017-Apr-16 12:00N 39°13' W 075°17'3 7.0
2017-Apr-16 11:30N 39°10' W 075°15'4 7.6
2017-Apr-16 11:00N 39°07' W 075°12'4 7.5
2017-Apr-16 10:30N 39°03' W 075°10'4 7.4
2017-Apr-16 10:00N 38°60' W 075°08'3 5.8
2017-Apr-16 09:30N 38°57' W 075°06'1 1.5
2017-Apr-16 09:00N 38°57' W 075°06'2 5.0
2017-Apr-16 08:30N 38°54' W 075°05'3 6.3
2017-Apr-16 08:00N 38°51' W 075°03'4 5.9
2017-Apr-16 07:17N 38°48' W 074°60'2 6.4
2017-Apr-16 07:00N 38°48' W 074°57'3 6.5
2017-Apr-16 06:30N 38°49' W 074°53'3 6.5
2017-Apr-16 06:00N 38°51' W 074°50'3 6.6
2017-Apr-16 05:30N 38°53' W 074°47'54 6.8
2017-Apr-15 21:32N 39°36' W 074°04'0 6.9
2017-Apr-15 21:29N 39°36' W 074°04'3 6.9
2017-Apr-15 21:00N 39°39' W 074°03'4 7.1
2017-Apr-15 20:30N 39°42' W 074°00'4 7.2
2017-Apr-15 20:00N 39°46' W 073°58'4 7.1
2017-Apr-15 19:30N 39°49' W 073°58'40 7.6
2017-Apr-15 14:17N 40°29' W 073°54'5 6.0
2017-Apr-15 13:30N 40°31' W 073°60'3 5.8
2017-Apr-15 13:00N 40°33' W 074°02'3 5.5
2017-Apr-15 12:30N 40°36' W 074°02'2 4.0
2017-Apr-15 12:00N 40°38' W 074°03'4 7.2
2017-Apr-15 11:30N 40°41' W 074°02'5 9.0
2017-Apr-15 11:00N 40°46' W 074°01'5 9.6
2017-Apr-15 10:30N 40°50' W 073°57'5 9.1
2017-Apr-15 10:00N 40°54' W 073°55'5 9.4
2017-Apr-15 09:29N 40°59' W 073°54'  
2017-Apr-12 22:27N 40°57' W 073°54'3 6.8
2017-Apr-12 22:00N 40°54' W 073°55'3 5.9
2017-Apr-12 21:30N 40°51' W 073°57'3 5.6
2017-Apr-12 21:00N 40°49' W 073°58'3 5.2
2017-Apr-12 20:30N 40°47' W 073°60'3 5.4
2017-Apr-12 20:00N 40°44' W 074°01'3 5.1
2017-Apr-12 19:30N 40°42' W 074°02'3 5.5
2017-Apr-12 19:00N 40°39' W 074°03'3 5.9
2017-Apr-12 18:30N 40°36' W 074°02'2 3.2
2017-Apr-12 18:00N 40°35' W 074°02'0 0.3
2017-Apr-12 17:30N 40°34' W 074°02'2 4.3
2017-Apr-12 17:00N 40°32' W 074°01'3 5.2
2017-Apr-12 16:30N 40°31' W 073°59'3 5.4
2017-Apr-12 15:59N 40°29' W 073°55'3 5.1
2017-Apr-12 15:30N 40°27' W 073°53'20 7.6
2017-Apr-12 12:49N 40°07' W 073°55'3 7.6
2017-Apr-12 12:28N 40°05' W 073°56'14 7.7
2017-Apr-12 10:36N 39°50' W 073°57'1 7.8
2017-Apr-12 10:28N 39°49' W 073°58'4 7.7
2017-Apr-12 10:00N 39°46' W 073°58'4 7.6
2017-Apr-12 09:30N 39°42' W 074°00'4 7.6
2017-Apr-12 09:00N 39°39' W 074°02'4 7.5
2017-Apr-12 08:30N 39°35' W 074°04'4 7.5
2017-Apr-12 08:00N 39°32' W 074°07'14 7.6
2017-Apr-12 06:13N 39°20' W 074°16'3 7.8
2017-Apr-12 05:46N 39°18' W 074°19'5 7.9
2017-Apr-12 05:07N 39°14' W 074°23'1 7.9
2017-Apr-12 05:00N 39°13' W 074°24'4 8.0
2017-Apr-12 04:30N 39°10' W 074°27'4 7.9
2017-Apr-12 03:59N 39°07' W 074°30'4 7.9
2017-Apr-12 03:30N 39°04' W 074°34'4 7.9
2017-Apr-12 03:00N 39°01' W 074°37'4 7.8
2017-Apr-12 02:30N 38°59' W 074°41'4 7.8
2017-Apr-12 02:00N 38°56' W 074°45'4 7.9
2017-Apr-12 01:29N 38°53' W 074°47'4 7.4
2017-Apr-12 00:58N 38°50' W 074°51'18 4.9
2017-Apr-11 21:12N 39°01' W 075°10'0 2.1
2017-Apr-11 21:00N 39°01' W 075°10'4 6.1
2017-Apr-11 20:18N 39°05' W 075°12'3 9.8
2017-Apr-11 20:00N 39°08' W 075°14'510.0
2017-Apr-11 19:30N 39°12' W 075°17'5 9.9
2017-Apr-11 19:00N 39°16' W 075°21'5 9.9
2017-Apr-11 18:30N 39°20' W 075°25'4 9.0
2017-Apr-11 18:00N 39°23' W 075°29'4 8.5
2017-Apr-11 17:30N 39°26' W 075°33'3 7.0
2017-Apr-11 17:00N 39°30' W 075°34'3 6.9
2017-Apr-11 16:30N 39°33' W 075°33'3 6.5
2017-Apr-11 16:00N 39°36' W 075°34'3 5.4
2017-Apr-11 15:30N 39°39' W 075°34'3 6.3
2017-Apr-11 15:00N 39°41' W 075°31'3 6.5
2017-Apr-11 14:30N 39°44' W 075°30'7 7.5
2017-Apr-11 13:30N 39°49' W 075°23'4 8.9
2017-Apr-11 13:00N 39°51' W 075°17'1 2.6
2017-Apr-11 12:30N 39°51' W 075°16'0 0.0
2017-Apr-11 12:00N 39°51' W 075°16'0 0.0
2017-Apr-11 11:30N 39°51' W 075°16'0 0.0
2017-Apr-11 11:00N 39°51' W 075°16'0 0.0
2017-Apr-11 10:30N 39°51' W 075°16'0 0.0
2017-Apr-11 10:00N 39°51' W 075°16'0 0.0
2017-Apr-11 09:30N 39°51' W 075°16'0 0.0
2017-Apr-11 09:00N 39°51' W 075°16'0 0.0
2017-Apr-11 08:30N 39°51' W 075°16'0 0.0
2017-Apr-11 08:00N 39°51' W 075°16'0 0.0
2017-Apr-11 07:30N 39°51' W 075°16'0 0.0
2017-Apr-11 07:00N 39°51' W 075°16'0 0.0
2017-Apr-11 06:30N 39°51' W 075°16'0 0.2
2017-Apr-11 06:01N 39°51' W 075°16'4 7.9
2017-Apr-11 05:31N 39°53' W 075°12'1 1.0
2017-Apr-11 05:00N 39°54' W 075°12'0 0.0
2017-Apr-11 04:30N 39°54' W 075°12'0 0.0
2017-Apr-11 04:00N 39°54' W 075°12'0 0.0
2017-Apr-11 03:30N 39°54' W 075°12'0 0.0
2017-Apr-11 03:00N 39°54' W 075°12'0 0.0
2017-Apr-11 02:30N 39°54' W 075°12'0 0.0
2017-Apr-11 02:00N 39°54' W 075°12'0 0.0
2017-Apr-11 01:30N 39°54' W 075°12'0 0.0
2017-Apr-11 01:00N 39°54' W 075°12'2 3.9
2017-Apr-11 00:30N 39°52' W 075°13'2 4.3
2017-Apr-10 23:59N 39°51' W 075°16'1 1.3
2017-Apr-10 23:31N 39°51' W 075°15'2 3.6
2017-Apr-10 22:58N 39°52' W 075°13'0 0.1
2017-Apr-10 22:28N 39°52' W 075°13'0 0.0
2017-Apr-10 21:58N 39°52' W 075°13'0 0.1
2017-Apr-10 21:28N 39°52' W 075°13'0 0.0
2017-Apr-10 20:58N 39°52' W 075°13'  
Track history (hours):
 
Tides and Currents Weather Stations Pressure Air Temp Water Temp Dewpoint Dewpoint Depression Visibility Wind Speed Wind Dir Waves Ship Positions

Chesapeake

Owner: Vane Line Bunkering, Baltimore, MD. More information available from US FCC via Universal Licensing System and Coast Guard Vessel Documentation Center.

Last reported at 2017-Apr-20 20:34 UTC. Time now 2017-Apr-23 23:42 UTC.
Position N 39°07' W 075°13'.

Length 34 m.

Type: Tug. MMSI: 367123040.

Date/timePositionNaut miles runAvg speedWind from/ knotsBaromVisibWave heightAir tempDewpointWater temp
2017-Apr-20 20:34N 39°07' W 075°13'1 7.5
2017-Apr-20 20:30N 39°08' W 075°13'4 7.3
2017-Apr-20 19:58N 39°11' W 075°16'3 7.0
2017-Apr-20 19:30N 39°14' W 075°18'4 7.4
2017-Apr-20 19:00N 39°16' W 075°21'4 7.6
2017-Apr-20 18:30N 39°19' W 075°24'4 8.6
2017-Apr-20 18:00N 39°22' W 075°28'5 9.1
2017-Apr-20 17:30N 39°26' W 075°32'5 9.1
2017-Apr-20 17:00N 39°30' W 075°33'5 9.6
2017-Apr-20 16:30N 39°35' W 075°34'4 8.8
2017-Apr-20 16:00N 39°39' W 075°33'510.1
2017-Apr-20 15:30N 39°44' W 075°30'5 9.6
2017-Apr-20 15:00N 39°48' W 075°26'8 8.3
2017-Apr-20 14:00N 39°51' W 075°16'2 3.3
2017-Apr-20 13:30N 39°52' W 075°14'2 4.8
2017-Apr-20 13:00N 39°54' W 075°12'0 0.0
2017-Apr-20 12:30N 39°54' W 075°12'0 0.0
2017-Apr-20 12:00N 39°54' W 075°12'0 0.0
2017-Apr-20 11:30N 39°54' W 075°12'0 0.0
2017-Apr-20 11:00N 39°54' W 075°12'0 0.0
2017-Apr-20 10:30N 39°54' W 075°12'0 0.0
2017-Apr-20 10:00N 39°54' W 075°12'0 0.0
2017-Apr-20 09:30N 39°54' W 075°12'0 0.0
2017-Apr-20 09:00N 39°54' W 075°12'0 0.0
2017-Apr-20 08:30N 39°54' W 075°12'0 0.0
2017-Apr-20 08:00N 39°54' W 075°12'0 0.0
2017-Apr-20 07:30N 39°54' W 075°12'0 0.0
2017-Apr-20 07:00N 39°54' W 075°12'0 0.0
2017-Apr-20 06:30N 39°54' W 075°12'0 0.0
2017-Apr-20 06:00N 39°54' W 075°12'0 0.0
2017-Apr-20 05:30N 39°54' W 075°12'0 0.0
2017-Apr-20 05:00N 39°54' W 075°12'0 0.0
2017-Apr-20 04:30N 39°54' W 075°12'0 0.0
2017-Apr-20 04:00N 39°54' W 075°12'0 0.0
2017-Apr-20 03:30N 39°54' W 075°12'0 0.0
2017-Apr-20 03:00N 39°54' W 075°12'0 0.0
2017-Apr-20 02:30N 39°54' W 075°12'0 0.0
2017-Apr-20 02:00N 39°54' W 075°12'1 1.2
2017-Apr-20 01:30N 39°53' W 075°12'3 5.3
2017-Apr-20 01:01N 39°54' W 075°08'2 3.7
2017-Apr-20 00:30N 39°53' W 075°10'2 3.3
2017-Apr-20 00:00N 39°54' W 075°12'0 0.0
2017-Apr-19 23:30N 39°54' W 075°12'0 0.0
2017-Apr-19 23:00N 39°54' W 075°12'0 0.0
2017-Apr-19 22:26N 39°54' W 075°12'0 0.0
2017-Apr-19 21:59N 39°54' W 075°12'0 0.0
2017-Apr-19 21:30N 39°54' W 075°12'0 0.0
2017-Apr-19 20:57N 39°54' W 075°12'0 0.0
2017-Apr-19 20:29N 39°54' W 075°12'0 0.0
2017-Apr-19 19:59N 39°54' W 075°12'0 0.0
2017-Apr-19 19:30N 39°54' W 075°12'0 0.0
2017-Apr-19 18:59N 39°54' W 075°12'0 0.0
2017-Apr-19 18:30N 39°54' W 075°12'0 0.0
2017-Apr-19 17:59N 39°54' W 075°12'0 0.0
2017-Apr-19 17:30N 39°54' W 075°12'0 0.0
2017-Apr-19 16:59N 39°54' W 075°12'0 0.0
2017-Apr-19 16:30N 39°54' W 075°12'0 0.0
2017-Apr-19 16:00N 39°54' W 075°12'0 0.0
2017-Apr-19 15:30N 39°54' W 075°12'0 0.0
2017-Apr-19 14:58N 39°54' W 075°12'0 0.0
2017-Apr-19 14:30N 39°54' W 075°12'0 0.0
2017-Apr-19 13:25N 39°54' W 075°12'0 0.0
2017-Apr-19 13:00N 39°54' W 075°12'0 0.0
2017-Apr-19 12:30N 39°54' W 075°12'0 0.0
2017-Apr-19 12:00N 39°54' W 075°12'0 0.0
2017-Apr-19 11:30N 39°54' W 075°12'0 0.0
2017-Apr-19 11:00N 39°54' W 075°12'0 0.0
2017-Apr-19 10:30N 39°54' W 075°12'0 0.1
2017-Apr-19 10:00N 39°54' W 075°12'0 0.0
2017-Apr-19 09:30N 39°54' W 075°12'0 0.0
2017-Apr-19 09:00N 39°54' W 075°12'0 0.0
2017-Apr-19 08:30N 39°54' W 075°12'0 0.0
2017-Apr-19 08:00N 39°54' W 075°12'0 0.0
2017-Apr-19 07:30N 39°54' W 075°12'3 6.4
2017-Apr-19 07:00N 39°51' W 075°15'1 1.7
2017-Apr-19 06:30N 39°51' W 075°16'0 1.0
2017-Apr-19 06:00N 39°51' W 075°17'5 9.2
2017-Apr-19 05:30N 39°50' W 075°22'5 9.6
2017-Apr-19 05:00N 39°47' W 075°28'5 9.3
2017-Apr-19 04:30N 39°43' W 075°30'4 8.9
2017-Apr-19 04:00N 39°39' W 075°33'4 7.1
2017-Apr-19 03:30N 39°35' W 075°34'0 0.1
2017-Apr-19 03:00N 39°35' W 075°34'2 4.8
2017-Apr-19 02:30N 39°33' W 075°35'5 9.1
2017-Apr-19 02:00N 39°33' W 075°41'4 8.9
2017-Apr-19 01:30N 39°32' W 075°47'4 7.6
2017-Apr-19 01:00N 39°32' W 075°52'5 9.0
2017-Apr-19 00:30N 39°29' W 075°57'5 9.3
2017-Apr-19 00:00N 39°26' W 076°01'4 8.9
2017-Apr-18 23:30N 39°23' W 076°05'4 8.9
2017-Apr-18 23:00N 39°21' W 076°10'6 8.5
2017-Apr-18 22:16N 39°15' W 076°14'3 9.0
2017-Apr-18 21:59N 39°13' W 076°15'5 9.3
2017-Apr-18 21:30N 39°09' W 076°19'5 9.3
2017-Apr-18 20:57N 39°10' W 076°25'410.1
2017-Apr-18 20:30N 39°12' W 076°31'4 7.8
2017-Apr-18 20:00N 39°15' W 076°34'1 2.8
2017-Apr-18 19:30N 39°16' W 076°34'0 0.0
2017-Apr-18 19:00N 39°16' W 076°34'0 0.1
2017-Apr-18 18:31N 39°16' W 076°34'0 0.0
2017-Apr-18 18:00N 39°16' W 076°34'0 0.0
2017-Apr-18 17:29N 39°16' W 076°34'0 0.0
2017-Apr-18 16:59N 39°16' W 076°34'0 0.0
2017-Apr-18 16:12N 39°16' W 076°34'0 0.0
2017-Apr-18 15:09N 39°16' W 076°34'0 0.0
2017-Apr-18 15:00N 39°16' W 076°34'0 0.0
2017-Apr-18 14:30N 39°16' W 076°34'0 0.0
2017-Apr-18 13:30N 39°16' W 076°34'0 0.0
2017-Apr-18 13:00N 39°16' W 076°34'0 0.0
2017-Apr-18 12:30N 39°16' W 076°34'0 0.0
2017-Apr-18 11:59N 39°16' W 076°34'0 0.0
2017-Apr-18 11:30N 39°16' W 076°34'0 0.0
2017-Apr-18 11:00N 39°16' W 076°34'0 0.0
2017-Apr-18 10:30N 39°16' W 076°34'0 0.0
2017-Apr-18 10:00N 39°16' W 076°34'0 0.0
2017-Apr-18 09:30N 39°16' W 076°34'0 0.0
2017-Apr-18 09:00N 39°16' W 076°34'0 0.0
2017-Apr-18 08:30N 39°16' W 076°34'0 0.0
2017-Apr-18 08:00N 39°16' W 076°34'0 0.0
2017-Apr-18 07:30N 39°16' W 076°34'0 0.0
2017-Apr-18 07:00N 39°16' W 076°34'0 0.0
2017-Apr-18 06:30N 39°16' W 076°34'0 0.0
2017-Apr-18 06:00N 39°16' W 076°34'0 0.0
2017-Apr-18 05:30N 39°16' W 076°34'0 0.0
2017-Apr-18 05:00N 39°16' W 076°34'0 0.0
2017-Apr-18 04:30N 39°16' W 076°34'1 1.8
2017-Apr-18 04:00N 39°16' W 076°34'1 1.6
2017-Apr-18 03:30N 39°15' W 076°33'0 0.0
2017-Apr-18 03:00N 39°15' W 076°33'0 0.0
2017-Apr-18 02:30N 39°15' W 076°33'0 0.0
2017-Apr-18 02:00N 39°15' W 076°33'0 0.1
2017-Apr-18 01:30N 39°15' W 076°33'0 0.1
2017-Apr-18 01:00N 39°15' W 076°33'0 0.1
2017-Apr-18 00:31N 39°15' W 076°33'0 0.1
2017-Apr-18 00:01N 39°15' W 076°33'0 0.0
2017-Apr-17 23:30N 39°15' W 076°33'0 0.0
2017-Apr-17 23:00N 39°15' W 076°33'0 0.1
2017-Apr-17 22:30N 39°15' W 076°33'0 0.1
2017-Apr-17 22:00N 39°15' W 076°33'0 0.0
2017-Apr-17 21:30N 39°15' W 076°33'0 0.0
2017-Apr-17 21:00N 39°15' W 076°33'0 0.0
2017-Apr-17 20:30N 39°15' W 076°33'1 1.6
2017-Apr-17 20:00N 39°15' W 076°34'0 0.0
2017-Apr-17 19:30N 39°15' W 076°34'0 0.0
2017-Apr-17 19:00N 39°15' W 076°34'0 0.0
2017-Apr-17 18:29N 39°15' W 076°34'0 0.1
2017-Apr-17 18:00N 39°15' W 076°34'0 0.0
2017-Apr-17 17:30N 39°15' W 076°34'0 0.0
2017-Apr-17 16:52N 39°15' W 076°34'0 0.0
2017-Apr-17 16:25N 39°15' W 076°34'0 0.0
2017-Apr-17 15:07N 39°15' W 076°34'0 0.0
2017-Apr-17 15:00N 39°15' W 076°34'0 0.0
2017-Apr-17 14:30N 39°15' W 076°34'1 0.8
2017-Apr-17 13:30N 39°15' W 076°33'0 0.0
2017-Apr-17 13:00N 39°15' W 076°33'0 0.0
2017-Apr-17 12:30N 39°15' W 076°33'0 0.0
2017-Apr-17 12:00N 39°15' W 076°33'0 0.0
2017-Apr-17 11:31N 39°15' W 076°33'0 0.1
2017-Apr-17 11:00N 39°15' W 076°33'0 0.0
2017-Apr-17 10:30N 39°15' W 076°33'0 0.0
2017-Apr-17 10:00N 39°15' W 076°33'0 0.0
2017-Apr-17 09:30N 39°15' W 076°33'0 0.0
2017-Apr-17 09:00N 39°15' W 076°33'0 0.0
2017-Apr-17 08:30N 39°15' W 076°33'0 0.0
2017-Apr-17 08:00N 39°15' W 076°33'0 0.0
2017-Apr-17 07:30N 39°15' W 076°33'0 0.0
2017-Apr-17 07:00N 39°15' W 076°33'0 0.0
2017-Apr-17 06:30N 39°15' W 076°33'0 0.0
2017-Apr-17 06:00N 39°15' W 076°33'0 0.0
2017-Apr-17 05:30N 39°15' W 076°33'0 0.0
2017-Apr-17 05:00N 39°15' W 076°33'0 0.0
2017-Apr-17 04:29N 39°15' W 076°33'0 0.0
2017-Apr-17 04:00N 39°15' W 076°33'0 0.0
2017-Apr-17 03:30N 39°15' W 076°33'0 0.0
2017-Apr-17 03:00N 39°15' W 076°33'0 0.0
2017-Apr-17 02:30N 39°15' W 076°33'0 0.1
2017-Apr-17 02:00N 39°15' W 076°33'0 0.0
2017-Apr-17 01:30N 39°15' W 076°33'0 0.0
2017-Apr-17 01:00N 39°15' W 076°33'0 0.0
2017-Apr-17 00:30N 39°15' W 076°33'0 0.0
2017-Apr-17 00:00N 39°15' W 076°33'0 0.0
2017-Apr-16 23:30N 39°15' W 076°33'0 0.0
2017-Apr-16 23:00N 39°15' W 076°33'0 0.4
2017-Apr-16 22:30N 39°15' W 076°33'3 6.3
2017-Apr-16 22:00N 39°12' W 076°31'5 9.1
2017-Apr-16 21:30N 39°10' W 076°25'4 8.9
2017-Apr-16 20:59N 39°09' W 076°20'7 9.6
2017-Apr-16 20:15N 39°14' W 076°14'210.1
2017-Apr-16 20:00N 39°17' W 076°14'7 9.6
2017-Apr-16 19:18N 39°22' W 076°08'3 9.7
2017-Apr-16 18:57N 39°24' W 076°04'4 9.1
2017-Apr-16 18:30N 39°26' W 076°00'4 8.7
2017-Apr-16 18:00N 39°29' W 075°56'4 7.9
2017-Apr-16 17:30N 39°32' W 075°52'3 6.6
2017-Apr-16 17:00N 39°32' W 075°48'4 7.1
2017-Apr-16 16:30N 39°33' W 075°43'3 6.9
2017-Apr-16 16:00N 39°33' W 075°39'3 6.9
2017-Apr-16 15:30N 39°34' W 075°35'3 5.7
2017-Apr-16 15:00N 39°31' W 075°33'8 7.6
2017-Apr-16 14:00N 39°24' W 075°30'4 7.8
2017-Apr-16 13:30N 39°21' W 075°26'4 7.2
2017-Apr-16 13:00N 39°18' W 075°23'4 7.2
2017-Apr-16 12:30N 39°16' W 075°20'4 7.1
2017-Apr-16 12:00N 39°13' W 075°17'3 7.0
2017-Apr-16 11:30N 39°10' W 075°15'4 7.6
2017-Apr-16 11:00N 39°07' W 075°12'4 7.5
2017-Apr-16 10:30N 39°03' W 075°10'4 7.4
2017-Apr-16 10:00N 38°60' W 075°08'3 5.8
2017-Apr-16 09:30N 38°57' W 075°06'1 1.5
2017-Apr-16 09:00N 38°57' W 075°06'2 5.0
2017-Apr-16 08:30N 38°54' W 075°05'3 6.3
2017-Apr-16 08:00N 38°51' W 075°03'4 5.9
2017-Apr-16 07:17N 38°48' W 074°60'2 6.4
2017-Apr-16 07:00N 38°48' W 074°57'3 6.5
2017-Apr-16 06:30N 38°49' W 074°53'3 6.5
2017-Apr-16 06:00N 38°51' W 074°50'3 6.6
2017-Apr-16 05:30N 38°53' W 074°47'54 6.8
2017-Apr-15 21:32N 39°36' W 074°04'0 6.9
2017-Apr-15 21:29N 39°36' W 074°04'3 6.9
2017-Apr-15 21:00N 39°39' W 074°03'4 7.1
2017-Apr-15 20:30N 39°42' W 074°00'4 7.2
2017-Apr-15 20:00N 39°46' W 073°58'4 7.1
2017-Apr-15 19:30N 39°49' W 073°58'40 7.6
2017-Apr-15 14:17N 40°29' W 073°54'5 6.0
2017-Apr-15 13:30N 40°31' W 073°60'3 5.8
2017-Apr-15 13:00N 40°33' W 074°02'3 5.5
2017-Apr-15 12:30N 40°36' W 074°02'2 4.0
2017-Apr-15 12:00N 40°38' W 074°03'4 7.2
2017-Apr-15 11:30N 40°41' W 074°02'5 9.0
2017-Apr-15 11:00N 40°46' W 074°01'5 9.6
2017-Apr-15 10:30N 40°50' W 073°57'5 9.1
2017-Apr-15 10:00N 40°54' W 073°55'5 9.4
2017-Apr-15 09:29N 40°59' W 073°54'  
2017-Apr-12 22:27N 40°57' W 073°54'3 6.8
2017-Apr-12 22:00N 40°54' W 073°55'3 5.9
2017-Apr-12 21:30N 40°51' W 073°57'3 5.6
2017-Apr-12 21:00N 40°49' W 073°58'3 5.2
2017-Apr-12 20:30N 40°47' W 073°60'3 5.4
2017-Apr-12 20:00N 40°44' W 074°01'3 5.1
2017-Apr-12 19:30N 40°42' W 074°02'3 5.5
2017-Apr-12 19:00N 40°39' W 074°03'3 5.9
2017-Apr-12 18:30N 40°36' W 074°02'2 3.2
2017-Apr-12 18:00N 40°35' W 074°02'0 0.3
2017-Apr-12 17:30N 40°34' W 074°02'2 4.3
2017-Apr-12 17:00N 40°32' W 074°01'3 5.2
2017-Apr-12 16:30N 40°31' W 073°59'3 5.4
2017-Apr-12 15:59N 40°29' W 073°55'3 5.1
2017-Apr-12 15:30N 40°27' W 073°53'20 7.6
2017-Apr-12 12:49N 40°07' W 073°55'3 7.6
2017-Apr-12 12:28N 40°05' W 073°56'14 7.7
2017-Apr-12 10:36N 39°50' W 073°57'1 7.8
2017-Apr-12 10:28N 39°49' W 073°58'4 7.7
2017-Apr-12 10:00N 39°46' W 073°58'4 7.6
2017-Apr-12 09:30N 39°42' W 074°00'4 7.6
2017-Apr-12 09:00N 39°39' W 074°02'4 7.5
2017-Apr-12 08:30N 39°35' W 074°04'4 7.5
2017-Apr-12 08:00N 39°32' W 074°07'14 7.6
2017-Apr-12 06:13N 39°20' W 074°16'3 7.8
2017-Apr-12 05:46N 39°18' W 074°19'5 7.9
2017-Apr-12 05:07N 39°14' W 074°23'1 7.9
2017-Apr-12 05:00N 39°13' W 074°24'4 8.0
2017-Apr-12 04:30N 39°10' W 074°27'4 7.9
2017-Apr-12 03:59N 39°07' W 074°30'4 7.9
2017-Apr-12 03:30N 39°04' W 074°34'4 7.9
2017-Apr-12 03:00N 39°01' W 074°37'4 7.8
2017-Apr-12 02:30N 38°59' W 074°41'4 7.8
2017-Apr-12 02:00N 38°56' W 074°45'4 7.9
2017-Apr-12 01:29N 38°53' W 074°47'4 7.4
2017-Apr-12 00:58N 38°50' W 074°51'18 4.9
2017-Apr-11 21:12N 39°01' W 075°10'0 2.1
2017-Apr-11 21:00N 39°01' W 075°10'4 6.1
2017-Apr-11 20:18N 39°05' W 075°12'3 9.8
2017-Apr-11 20:00N 39°08' W 075°14'510.0
2017-Apr-11 19:30N 39°12' W 075°17'5 9.9
2017-Apr-11 19:00N 39°16' W 075°21'5 9.9
2017-Apr-11 18:30N 39°20' W 075°25'4 9.0
2017-Apr-11 18:00N 39°23' W 075°29'4 8.5
2017-Apr-11 17:30N 39°26' W 075°33'3 7.0
2017-Apr-11 17:00N 39°30' W 075°34'3 6.9
2017-Apr-11 16:30N 39°33' W 075°33'3 6.5
2017-Apr-11 16:00N 39°36' W 075°34'3 5.4
2017-Apr-11 15:30N 39°39' W 075°34'3 6.3
2017-Apr-11 15:00N 39°41' W 075°31'3 6.5
2017-Apr-11 14:30N 39°44' W 075°30'7 7.5
2017-Apr-11 13:30N 39°49' W 075°23'4 8.9
2017-Apr-11 13:00N 39°51' W 075°17'1 2.6
2017-Apr-11 12:30N 39°51' W 075°16'0 0.0
2017-Apr-11 12:00N 39°51' W 075°16'0 0.0
2017-Apr-11 11:30N 39°51' W 075°16'0 0.0
2017-Apr-11 11:00N 39°51' W 075°16'0 0.0
2017-Apr-11 10:30N 39°51' W 075°16'0 0.0
2017-Apr-11 10:00N 39°51' W 075°16'0 0.0
2017-Apr-11 09:30N 39°51' W 075°16'0 0.0
2017-Apr-11 09:00N 39°51' W 075°16'0 0.0
2017-Apr-11 08:30N 39°51' W 075°16'0 0.0
2017-Apr-11 08:00N 39°51' W 075°16'0 0.0
2017-Apr-11 07:30N 39°51' W 075°16'0 0.0
2017-Apr-11 07:00N 39°51' W 075°16'0 0.0
2017-Apr-11 06:30N 39°51' W 075°16'0 0.2
2017-Apr-11 06:01N 39°51' W 075°16'4 7.9
2017-Apr-11 05:31N 39°53' W 075°12'1 1.0
2017-Apr-11 05:00N 39°54' W 075°12'0 0.0
2017-Apr-11 04:30N 39°54' W 075°12'0 0.0
2017-Apr-11 04:00N 39°54' W 075°12'0 0.0
2017-Apr-11 03:30N 39°54' W 075°12'0 0.0
2017-Apr-11 03:00N 39°54' W 075°12'0 0.0
2017-Apr-11 02:30N 39°54' W 075°12'0 0.0
2017-Apr-11 02:00N 39°54' W 075°12'0 0.0
2017-Apr-11 01:30N 39°54' W 075°12'0 0.0
2017-Apr-11 01:00N 39°54' W 075°12'2 3.9
2017-Apr-11 00:30N 39°52' W 075°13'2 4.3
2017-Apr-10 23:59N 39°51' W 075°16'1 1.3
2017-Apr-10 23:31N 39°51' W 075°15'2 3.6
2017-Apr-10 22:58N 39°52' W 075°13'0 0.1
2017-Apr-10 22:28N 39°52' W 075°13'0 0.0
2017-Apr-10 21:58N 39°52' W 075°13'0 0.1
2017-Apr-10 21:28N 39°52' W 075°13'0 0.0
2017-Apr-10 20:58N 39°52' W 075°13'  

Dump ship's entire track history